Mesita, Colorado
Current Conditions -  °F | °C
As of 8:52 PM on Thursday 27 Nov 2014 (Local Time) from KALS Reporting Station
Clear Clear  
Wind Chill: -7°   Ceiling: Unl
Heat Index: -7°   Visibility: 10mi
Dew Point: -12°   Wind: 3mph
Humidity: 68%   Direction: 90°E
Pressure: 30.34"   Gusts: NA
Location:  37.0838°N, 105.58°W
Report Text: KALS 280352Z AUTO 09003KT 10SM CLR M07/M12 A3034 RMK AO2 SLP305 T10671117
Loading
Personal Weather Stations






























Interactive Weather Map New forecast layout! Learn more

10-Day Weather Forecast

Advertisements
Track Severe Weather on mobile